Terminal Aerodrome Forecast
Issued by NWS

Current Version | Previous Version | Graphics & Text | Print | Product List | Glossary On
Versions: 1 2 3 4 5 6 7 8 9 10 11 12 13 14 15 16 17 18 19 20 21 22 23 24
000
FTUS41 KRLX 170222 AAA
TAFCKB
TAF AMD
KCKB 170222Z 1702/1724 29008KT 3SM -SN OVC050
     FM170330 29003KT 5SM -SHSN OVC015
     FM170430 29003KT P6SM OVC017
     FM172100 25005KT P6SM SCT025=

USA.gov is the U.S. government's official web portal to all federal, state and local government web resources and services.